sensor_id;sensor_type;location;lat;lon;timestamp;temperature;humidity
37342;DHT22;58643;49.052;8.518;2023-04-06T00:00:25;2.80;99.90
37342;DHT22;58643;49.052;8.518;2023-04-06T00:02:51;2.40;99.90
37342;DHT22;58643;49.052;8.518;2023-04-06T00:05:18;2.30;99.90
37342;DHT22;58643;49.052;8.518;2023-04-06T00:07:44;1.40;99.90
37342;DHT22;58643;49.052;8.518;2023-04-06T00:10:10;1.70;99.90
37342;DHT22;58643;49.052;8.518;2023-04-06T00:12:36;1.70;99.90
37342;DHT22;58643;49.052;8.518;2023-04-06T00:15:01;1.60;99.90
37342;DHT22;58643;49.052;8.518;2023-04-06T00:17:27;1.70;99.90
37342;DHT22;58643;49.052;8.518;2023-04-06T00:19:53;3.20;99.90
37342;DHT22;58643;49.052;8.518;2023-04-06T00:22:19;2.10;99.90
37342;DHT22;58643;49.052;8.518;2023-04-06T00:24:45;1.50;99.90
37342;DHT22;58643;49.052;8.518;2023-04-06T00:27:10;3.50;99.90
37342;DHT22;58643;49.052;8.518;2023-04-06T00:29:36;3.20;99.90
37342;DHT22;58643;49.052;8.518;2023-04-06T00:32:02;1.10;99.90
37342;DHT22;58643;49.052;8.518;2023-04-06T00:34:27;1.10;99.90
37342;DHT22;58643;49.052;8.518;2023-04-06T00:36:53;1.00;99.90
37342;DHT22;58643;49.052;8.518;2023-04-06T00:39:19;0.80;99.90
37342;DHT22;58643;49.052;8.518;2023-04-06T00:41:47;0.50;99.90
37342;DHT22;58643;49.052;8.518;2023-04-06T00:44:14;0.30;99.90
37342;DHT22;58643;49.052;8.518;2023-04-06T00:46:40;0.00;99.90
37342;DHT22;58643;49.052;8.518;2023-04-06T00:49:06;2.40;99.90
37342;DHT22;58643;49.052;8.518;2023-04-06T00:51:31;0.00;99.90
37342;DHT22;58643;49.052;8.518;2023-04-06T00:53:57;0.00;99.90
37342;DHT22;58643;49.052;8.518;2023-04-06T00:56:23;0.00;99.90
37342;DHT22;58643;49.052;8.518;2023-04-06T00:58:49;1.80;99.90
37342;DHT22;58643;49.052;8.518;2023-04-06T01:01:15;0.10;99.90
37342;DHT22;58643;49.052;8.518;2023-04-06T01:03:41;0.00;99.90
37342;DHT22;58643;49.052;8.518;2023-04-06T01:06:07;0.30;99.90
37342;DHT22;58643;49.052;8.518;2023-04-06T01:08:33;0.30;99.90
37342;DHT22;58643;49.052;8.518;2023-04-06T01:11:00;2.40;99.90
37342;DHT22;58643;49.052;8.518;2023-04-06T01:13:26;0.10;99.90
37342;DHT22;58643;49.052;8.518;2023-04-06T01:15:52;0.00;99.90
37342;DHT22;58643;49.052;8.518;2023-04-06T01:18:18;-0.30;99.90
37342;DHT22;58643;49.052;8.518;2023-04-06T01:20:44;-0.10;99.90
37342;DHT22;58643;49.052;8.518;2023-04-06T01:23:09;1.20;99.90
37342;DHT22;58643;49.052;8.518;2023-04-06T01:25:35;-0.30;99.90
37342;DHT22;58643;49.052;8.518;2023-04-06T01:28:00;-0.40;99.90
37342;DHT22;58643;49.052;8.518;2023-04-06T01:30:26;-0.20;99.90
37342;DHT22;58643;49.052;8.518;2023-04-06T01:32:52;0.20;99.90
37342;DHT22;58643;49.052;8.518;2023-04-06T01:35:19;1.50;99.90
37342;DHT22;58643;49.052;8.518;2023-04-06T01:37:44;2.40;99.90
37342;DHT22;58643;49.052;8.518;2023-04-06T01:40:10;-1.40;99.90
37342;DHT22;58643;49.052;8.518;2023-04-06T01:42:36;0.10;99.90
37342;DHT22;58643;49.052;8.518;2023-04-06T01:45:02;0.00;99.90
37342;DHT22;58643;49.052;8.518;2023-04-06T01:47:28;-0.10;99.90
37342;DHT22;58643;49.052;8.518;2023-04-06T01:49:54;0.50;99.90
37342;DHT22;58643;49.052;8.518;2023-04-06T01:52:19;-0.30;99.90
37342;DHT22;58643;49.052;8.518;2023-04-06T01:54:46;-0.50;99.90
37342;DHT22;58643;49.052;8.518;2023-04-06T01:57:11;0.40;99.90
37342;DHT22;58643;49.052;8.518;2023-04-06T01:59:37;-0.20;99.90
37342;DHT22;58643;49.052;8.518;2023-04-06T02:02:03;-0.20;99.90
37342;DHT22;58643;49.052;8.518;2023-04-06T02:04:28;1.90;99.90
37342;DHT22;58643;49.052;8.518;2023-04-06T02:06:54;-0.10;99.90
37342;DHT22;58643;49.052;8.518;2023-04-06T02:09:19;0.20;99.90
37342;DHT22;58643;49.052;8.518;2023-04-06T02:11:46;0.20;99.90
37342;DHT22;58643;49.052;8.518;2023-04-06T02:14:12;0.20;99.90
37342;DHT22;58643;49.052;8.518;2023-04-06T02:16:38;1.20;99.90
37342;DHT22;58643;49.052;8.518;2023-04-06T02:19:03;1.20;99.90
37342;DHT22;58643;49.052;8.518;2023-04-06T02:21:29;0.20;99.90
37342;DHT22;58643;49.052;8.518;2023-04-06T02:23:55;0.20;99.90
37342;DHT22;58643;49.052;8.518;2023-04-06T02:26:21;0.20;99.90
37342;DHT22;58643;49.052;8.518;2023-04-06T02:28:46;1.20;99.90
37342;DHT22;58643;49.052;8.518;2023-04-06T02:31:12;1.80;99.90
37342;DHT22;58643;49.052;8.518;2023-04-06T02:33:40;0.20;99.90
37342;DHT22;58643;49.052;8.518;2023-04-06T02:36:05;1.40;99.90
37342;DHT22;58643;49.052;8.518;2023-04-06T02:38:31;0.10;99.90
37342;DHT22;58643;49.052;8.518;2023-04-06T02:40:57;0.20;99.90
37342;DHT22;58643;49.052;8.518;2023-04-06T02:43:22;2.10;99.90
37342;DHT22;58643;49.052;8.518;2023-04-06T02:45:48;0.20;99.90
37342;DHT22;58643;49.052;8.518;2023-04-06T02:48:14;0.10;99.90
37342;DHT22;58643;49.052;8.518;2023-04-06T02:50:40;0.20;99.90
37342;DHT22;58643;49.052;8.518;2023-04-06T02:53:05;0.30;99.90
37342;DHT22;58643;49.052;8.518;2023-04-06T02:55:31;2.80;99.90
37342;DHT22;58643;49.052;8.518;2023-04-06T02:57:57;0.30;99.90
37342;DHT22;58643;49.052;8.518;2023-04-06T03:00:22;1.50;99.90
37342;DHT22;58643;49.052;8.518;2023-04-06T03:02:48;0.30;99.90
37342;DHT22;58643;49.052;8.518;2023-04-06T03:05:14;0.30;99.90
37342;DHT22;58643;49.052;8.518;2023-04-06T03:07:39;0.30;99.90
37342;DHT22;58643;49.052;8.518;2023-04-06T03:10:05;0.30;99.90
37342;DHT22;58643;49.052;8.518;2023-04-06T03:12:31;0.20;99.90
37342;DHT22;58643;49.052;8.518;2023-04-06T03:14:57;0.40;99.90
37342;DHT22;58643;49.052;8.518;2023-04-06T03:17:22;0.20;99.90
37342;DHT22;58643;49.052;8.518;2023-04-06T03:19:48;1.10;99.90
37342;DHT22;58643;49.052;8.518;2023-04-06T03:22:13;0.00;99.90
37342;DHT22;58643;49.052;8.518;2023-04-06T03:24:39;-0.10;99.90
37342;DHT22;58643;49.052;8.518;2023-04-06T03:27:05;-0.20;99.90
37342;DHT22;58643;49.052;8.518;2023-04-06T03:29:31;0.50;99.90
37342;DHT22;58643;49.052;8.518;2023-04-06T03:31:57;-0.40;99.90
37342;DHT22;58643;49.052;8.518;2023-04-06T03:34:22;0.40;99.90
37342;DHT22;58643;49.052;8.518;2023-04-06T03:36:48;-0.30;99.90
37342;DHT22;58643;49.052;8.518;2023-04-06T03:39:14;-0.20;99.90
37342;DHT22;58643;49.052;8.518;2023-04-06T03:41:39;-0.10;99.90
37342;DHT22;58643;49.052;8.518;2023-04-06T03:44:05;-0.20;99.90
37342;DHT22;58643;49.052;8.518;2023-04-06T03:46:31;2.30;99.90
37342;DHT22;58643;49.052;8.518;2023-04-06T03:48:57;1.80;99.90
37342;DHT22;58643;49.052;8.518;2023-04-06T03:51:23;0.90;99.90
37342;DHT22;58643;49.052;8.518;2023-04-06T03:53:48;-0.10;99.90
37342;DHT22;58643;49.052;8.518;2023-04-06T03:56:14;0.00;99.90
37342;DHT22;58643;49.052;8.518;2023-04-06T03:58:40;0.90;99.90
37342;DHT22;58643;49.052;8.518;2023-04-06T04:01:05;0.20;99.90
37342;DHT22;58643;49.052;8.518;2023-04-06T04:03:31;0.50;99.90
37342;DHT22;58643;49.052;8.518;2023-04-06T04:05:56;0.20;99.90
37342;DHT22;58643;49.052;8.518;2023-04-06T04:08:24;2.30;99.90
37342;DHT22;58643;49.052;8.518;2023-04-06T04:10:49;0.40;99.90
37342;DHT22;58643;49.052;8.518;2023-04-06T04:13:15;1.30;99.90
37342;DHT22;58643;49.052;8.518;2023-04-06T04:15:41;0.30;99.90
37342;DHT22;58643;49.052;8.518;2023-04-06T04:18:06;0.20;99.90
37342;DHT22;58643;49.052;8.518;2023-04-06T04:20:32;0.20;99.90
37342;DHT22;58643;49.052;8.518;2023-04-06T04:22:58;0.00;99.90
37342;DHT22;58643;49.052;8.518;2023-04-06T04:25:23;0.20;99.90
37342;DHT22;58643;49.052;8.518;2023-04-06T04:27:49;-0.10;99.90
37342;DHT22;58643;49.052;8.518;2023-04-06T04:30:16;-0.20;99.90
37342;DHT22;58643;49.052;8.518;2023-04-06T04:32:41;0.00;99.90
37342;DHT22;58643;49.052;8.518;2023-04-06T04:35:07;-0.30;99.90
37342;DHT22;58643;49.052;8.518;2023-04-06T04:37:33;-0.50;99.90
37342;DHT22;58643;49.052;8.518;2023-04-06T04:40:00;-0.50;99.90
37342;DHT22;58643;49.052;8.518;2023-04-06T04:42:26;-0.40;99.90
37342;DHT22;58643;49.052;8.518;2023-04-06T04:44:52;-0.60;99.90
37342;DHT22;58643;49.052;8.518;2023-04-06T04:47:18;-0.70;99.90
37342;DHT22;58643;49.052;8.518;2023-04-06T04:49:44;0.90;99.90
37342;DHT22;58643;49.052;8.518;2023-04-06T04:52:09;-1.00;99.90
37342;DHT22;58643;49.052;8.518;2023-04-06T04:54:35;-1.00;99.90
37342;DHT22;58643;49.052;8.518;2023-04-06T04:57:01;-1.10;99.90
37342;DHT22;58643;49.052;8.518;2023-04-06T04:59:26;-1.20;99.90
37342;DHT22;58643;49.052;8.518;2023-04-06T05:01:52;-1.20;99.90
37342;DHT22;58643;49.052;8.518;2023-04-06T05:04:17;-1.40;99.90
37342;DHT22;58643;49.052;8.518;2023-04-06T05:06:43;-1.70;99.90
37342;DHT22;58643;49.052;8.518;2023-04-06T05:09:09;-1.70;99.90
37342;DHT22;58643;49.052;8.518;2023-04-06T05:11:35;-1.70;99.90
37342;DHT22;58643;49.052;8.518;2023-04-06T05:14:00;-0.50;99.90
37342;DHT22;58643;49.052;8.518;2023-04-06T05:16:26;-1.70;99.90
37342;DHT22;58643;49.052;8.518;2023-04-06T05:18:52;-0.90;99.90
37342;DHT22;58643;49.052;8.518;2023-04-06T05:21:18;-1.50;99.90
37342;DHT22;58643;49.052;8.518;2023-04-06T05:23:44;-1.60;99.90
37342;DHT22;58643;49.052;8.518;2023-04-06T05:26:10;-1.60;99.90
37342;DHT22;58643;49.052;8.518;2023-04-06T05:28:35;-1.60;99.90
37342;DHT22;58643;49.052;8.518;2023-04-06T05:31:01;-1.30;99.90
37342;DHT22;58643;49.052;8.518;2023-04-06T05:33:27;-1.20;99.90
37342;DHT22;58643;49.052;8.518;2023-04-06T05:35:52;-1.00;99.90
37342;DHT22;58643;49.052;8.518;2023-04-06T05:38:18;-0.80;99.90
37342;DHT22;58643;49.052;8.518;2023-04-06T05:40:44;-0.80;99.90
37342;DHT22;58643;49.052;8.518;2023-04-06T05:43:09;-0.80;99.90
37342;DHT22;58643;49.052;8.518;2023-04-06T05:45:35;-0.70;99.90
37342;DHT22;58643;49.052;8.518;2023-04-06T05:48:02;-0.70;99.90
37342;DHT22;58643;49.052;8.518;2023-04-06T05:50:27;-0.60;99.90
37342;DHT22;58643;49.052;8.518;2023-04-06T05:52:53;-0.70;99.90
37342;DHT22;58643;49.052;8.518;2023-04-06T05:55:19;-0.40;99.90
37342;DHT22;58643;49.052;8.518;2023-04-06T05:57:45;1.30;99.90
37342;DHT22;58643;49.052;8.518;2023-04-06T06:00:11;-0.30;99.90
37342;DHT22;58643;49.052;8.518;2023-04-06T06:02:37;-0.20;99.90
37342;DHT22;58643;49.052;8.518;2023-04-06T06:05:03;1.30;99.90
37342;DHT22;58643;49.052;8.518;2023-04-06T06:07:28;-0.10;99.90
37342;DHT22;58643;49.052;8.518;2023-04-06T06:09:58;0.10;99.90
37342;DHT22;58643;49.052;8.518;2023-04-06T06:12:23;0.10;99.90
37342;DHT22;58643;49.052;8.518;2023-04-06T06:14:49;0.40;99.90
37342;DHT22;58643;49.052;8.518;2023-04-06T06:17:15;0.50;99.90
37342;DHT22;58643;49.052;8.518;2023-04-06T06:19:40;1.10;99.90
37342;DHT22;58643;49.052;8.518;2023-04-06T06:22:06;1.60;99.90
37342;DHT22;58643;49.052;8.518;2023-04-06T06:24:32;0.70;99.90
37342;DHT22;58643;49.052;8.518;2023-04-06T06:26:58;0.90;99.90
37342;DHT22;58643;49.052;8.518;2023-04-06T06:29:24;1.10;99.90
37342;DHT22;58643;49.052;8.518;2023-04-06T06:31:49;1.20;99.90
37342;DHT22;58643;49.052;8.518;2023-04-06T06:34:15;1.40;99.90
37342;DHT22;58643;49.052;8.518;2023-04-06T06:36:41;2.10;99.90
37342;DHT22;58643;49.052;8.518;2023-04-06T06:39:06;3.80;99.90
37342;DHT22;58643;49.052;8.518;2023-04-06T06:41:32;3.60;99.90
37342;DHT22;58643;49.052;8.518;2023-04-06T06:43:58;2.90;99.90
37342;DHT22;58643;49.052;8.518;2023-04-06T06:46:23;4.60;99.90
37342;DHT22;58643;49.052;8.518;2023-04-06T06:48:49;2.40;99.90
37342;DHT22;58643;49.052;8.518;2023-04-06T06:51:14;2.60;99.90
37342;DHT22;58643;49.052;8.518;2023-04-06T06:53:40;2.90;99.90
37342;DHT22;58643;49.052;8.518;2023-04-06T06:56:06;4.10;99.90
37342;DHT22;58643;49.052;8.518;2023-04-06T06:58:31;3.30;99.90
37342;DHT22;58643;49.052;8.518;2023-04-06T07:00:58;4.30;99.90
37342;DHT22;58643;49.052;8.518;2023-04-06T07:03:24;3.30;99.90
37342;DHT22;58643;49.052;8.518;2023-04-06T07:05:50;4.90;99.90
37342;DHT22;58643;49.052;8.518;2023-04-06T07:08:19;4.50;99.90
37342;DHT22;58643;49.052;8.518;2023-04-06T07:10:45;4.60;99.90
37342;DHT22;58643;49.052;8.518;2023-04-06T07:13:10;4.40;99.90
37342;DHT22;58643;49.052;8.518;2023-04-06T07:15:36;6.30;99.90
37342;DHT22;58643;49.052;8.518;2023-04-06T07:18:02;4.90;99.90
37342;DHT22;58643;49.052;8.518;2023-04-06T07:20:28;4.20;99.90
37342;DHT22;58643;49.052;8.518;2023-04-06T07:22:54;5.60;99.90
37342;DHT22;58643;49.052;8.518;2023-04-06T07:25:20;4.50;99.90
37342;DHT22;58643;49.052;8.518;2023-04-06T07:27:45;4.60;99.90
37342;DHT22;58643;49.052;8.518;2023-04-06T07:30:11;4.70;99.90
37342;DHT22;58643;49.052;8.518;2023-04-06T07:32:37;4.90;99.90
37342;DHT22;58643;49.052;8.518;2023-04-06T07:35:03;6.20;99.90
37342;DHT22;58643;49.052;8.518;2023-04-06T07:37:29;5.10;99.90
37342;DHT22;58643;49.052;8.518;2023-04-06T07:39:54;5.20;99.90
37342;DHT22;58643;49.052;8.518;2023-04-06T07:42:20;6.40;99.90
37342;DHT22;58643;49.052;8.518;2023-04-06T07:44:46;5.50;99.90
37342;DHT22;58643;49.052;8.518;2023-04-06T07:47:11;5.60;99.90
37342;DHT22;58643;49.052;8.518;2023-04-06T07:49:37;5.80;99.90
37342;DHT22;58643;49.052;8.518;2023-04-06T07:52:03;7.10;99.90
37342;DHT22;58643;49.052;8.518;2023-04-06T07:54:29;6.20;99.90
37342;DHT22;58643;49.052;8.518;2023-04-06T07:56:55;7.00;99.90
37342;DHT22;58643;49.052;8.518;2023-04-06T07:59:20;7.50;99.90
37342;DHT22;58643;49.052;8.518;2023-04-06T08:01:46;6.60;99.90
37342;DHT22;58643;49.052;8.518;2023-04-06T08:04:12;6.70;99.90
37342;DHT22;58643;49.052;8.518;2023-04-06T08:06:37;7.30;99.90
37342;DHT22;58643;49.052;8.518;2023-04-06T08:09:03;7.10;99.90
37342;DHT22;58643;49.052;8.518;2023-04-06T08:11:29;7.20;99.90
37342;DHT22;58643;49.052;8.518;2023-04-06T08:13:55;7.40;99.90
37342;DHT22;58643;49.052;8.518;2023-04-06T08:16:24;7.30;99.90
37342;DHT22;58643;49.052;8.518;2023-04-06T08:18:50;7.40;99.90
37342;DHT22;58643;49.052;8.518;2023-04-06T08:21:15;7.60;99.90
37342;DHT22;58643;49.052;8.518;2023-04-06T08:23:41;7.70;99.90
37342;DHT22;58643;49.052;8.518;2023-04-06T08:26:07;7.90;99.90
37342;DHT22;58643;49.052;8.518;2023-04-06T08:28:32;8.10;99.90
37342;DHT22;58643;49.052;8.518;2023-04-06T08:31:06;8.50;99.90
37342;DHT22;58643;49.052;8.518;2023-04-06T08:33:32;9.80;99.90
37342;DHT22;58643;49.052;8.518;2023-04-06T08:36:10;8.50;99.90
37342;DHT22;58643;49.052;8.518;2023-04-06T08:38:36;8.00;99.90
37342;DHT22;58643;49.052;8.518;2023-04-06T08:41:09;8.20;99.90
37342;DHT22;58643;49.052;8.518;2023-04-06T08:43:49;8.20;99.90
37342;DHT22;58643;49.052;8.518;2023-04-06T08:46:16;8.40;99.90
37342;DHT22;58643;49.052;8.518;2023-04-06T08:48:42;8.60;99.90
37342;DHT22;58643;49.052;8.518;2023-04-06T08:51:09;8.90;99.90
37342;DHT22;58643;49.052;8.518;2023-04-06T08:53:35;9.00;99.50
37342;DHT22;58643;49.052;8.518;2023-04-06T08:56:02;9.10;98.30
37342;DHT22;58643;49.052;8.518;2023-04-06T08:58:40;9.20;98.30
37342;DHT22;58643;49.052;8.518;2023-04-06T09:01:08;9.40;97.30
37342;DHT22;58643;49.052;8.518;2023-04-06T09:03:38;9.70;97.40
37342;DHT22;58643;49.052;8.518;2023-04-06T09:06:06;9.80;95.90
37342;DHT22;58643;49.052;8.518;2023-04-06T09:08:33;9.80;96.50
37342;DHT22;58643;49.052;8.518;2023-04-06T09:11:01;10.10;95.40
37342;DHT22;58643;49.052;8.518;2023-04-06T09:13:27;10.10;94.70
37342;DHT22;58643;49.052;8.518;2023-04-06T09:16:03;10.50;93.80
37342;DHT22;58643;49.052;8.518;2023-04-06T09:18:33;10.90;92.60
37342;DHT22;58643;49.052;8.518;2023-04-06T09:21:04;11.30;90.70
37342;DHT22;58643;49.052;8.518;2023-04-06T09:23:30;11.70;87.40
37342;DHT22;58643;49.052;8.518;2023-04-06T09:26:16;11.90;87.40
37342;DHT22;58643;49.052;8.518;2023-04-06T09:31:07;13.20;78.70
37342;DHT22;58643;49.052;8.518;2023-04-06T09:33:37;13.30;77.30
37342;DHT22;58643;49.052;8.518;2023-04-06T09:36:04;13.50;74.80
37342;DHT22;58643;49.052;8.518;2023-04-06T09:38:30;14.00;72.00
37342;DHT22;58643;49.052;8.518;2023-04-06T09:40:55;13.20;73.00
37342;DHT22;58643;49.052;8.518;2023-04-06T09:43:28;14.90;72.10
37342;DHT22;58643;49.052;8.518;2023-04-06T09:45:55;15.50;65.30
37342;DHT22;58643;49.052;8.518;2023-04-06T09:48:22;16.60;62.70
37342;DHT22;58643;49.052;8.518;2023-04-06T09:50:50;17.80;59.40
37342;DHT22;58643;49.052;8.518;2023-04-06T09:53:19;17.50;60.70
37342;DHT22;58643;49.052;8.518;2023-04-06T09:55:46;18.00;59.20
37342;DHT22;58643;49.052;8.518;2023-04-06T09:58:16;18.60;58.50
37342;DHT22;58643;49.052;8.518;2023-04-06T10:01:15;19.10;55.30
37342;DHT22;58643;49.052;8.518;2023-04-06T10:06:17;19.30;52.00
37342;DHT22;58643;49.052;8.518;2023-04-06T10:08:47;19.70;53.70
37342;DHT22;58643;49.052;8.518;2023-04-06T10:11:15;20.10;50.10
37342;DHT22;58643;49.052;8.518;2023-04-06T10:13:40;19.90;49.30
37342;DHT22;58643;49.052;8.518;2023-04-06T10:16:07;20.10;51.40
37342;DHT22;58643;49.052;8.518;2023-04-06T10:18:33;19.70;49.30
37342;DHT22;58643;49.052;8.518;2023-04-06T10:21:09;19.70;48.90
37342;DHT22;58643;49.052;8.518;2023-04-06T10:23:41;19.80;49.70
37342;DHT22;58643;49.052;8.518;2023-04-06T10:26:17;20.10;48.50
37342;DHT22;58643;49.052;8.518;2023-04-06T10:28:44;20.20;46.60
37342;DHT22;58643;49.052;8.518;2023-04-06T10:31:10;19.40;49.40
37342;DHT22;58643;49.052;8.518;2023-04-06T10:33:36;20.00;49.50
37342;DHT22;58643;49.052;8.518;2023-04-06T10:36:21;19.40;49.40
37342;DHT22;58643;49.052;8.518;2023-04-06T10:38:46;19.00;49.80
37342;DHT22;58643;49.052;8.518;2023-04-06T10:41:12;18.60;50.70
37342;DHT22;58643;49.052;8.518;2023-04-06T10:43:40;19.00;51.60
37342;DHT22;58643;49.052;8.518;2023-04-06T10:46:08;18.70;55.80
37342;DHT22;58643;49.052;8.518;2023-04-06T10:48:41;18.80;49.50
37342;DHT22;58643;49.052;8.518;2023-04-06T10:51:18;19.60;48.30
37342;DHT22;58643;49.052;8.518;2023-04-06T10:53:47;20.00;48.50
37342;DHT22;58643;49.052;8.518;2023-04-06T10:56:16;18.90;48.50
37342;DHT22;58643;49.052;8.518;2023-04-06T10:58:49;19.10;47.50
37342;DHT22;58643;49.052;8.518;2023-04-06T11:01:17;19.70;46.30
37342;DHT22;58643;49.052;8.518;2023-04-06T11:06:10;18.10;49.80
37342;DHT22;58643;49.052;8.518;2023-04-06T11:08:36;18.50;50.00
37342;DHT22;58643;49.052;8.518;2023-04-06T11:11:12;20.20;48.10
37342;DHT22;58643;49.052;8.518;2023-04-06T11:13:43;20.10;45.20
37342;DHT22;58643;49.052;8.518;2023-04-06T11:16:32;19.30;48.80
37342;DHT22;58643;49.052;8.518;2023-04-06T11:19:00;19.30;46.40
37342;DHT22;58643;49.052;8.518;2023-04-06T11:24:12;19.90;47.40
37342;DHT22;58643;49.052;8.518;2023-04-06T11:26:46;18.50;49.60
37342;DHT22;58643;49.052;8.518;2023-04-06T11:29:15;18.50;50.20
37342;DHT22;58643;49.052;8.518;2023-04-06T11:31:49;19.50;48.00
37342;DHT22;58643;49.052;8.518;2023-04-06T11:34:19;19.30;48.10
37342;DHT22;58643;49.052;8.518;2023-04-06T11:36:47;20.20;47.90
37342;DHT22;58643;49.052;8.518;2023-04-06T11:39:17;21.40;45.60
37342;DHT22;58643;49.052;8.518;2023-04-06T11:41:51;21.60;45.20
37342;DHT22;58643;49.052;8.518;2023-04-06T11:46:57;19.50;46.50
37342;DHT22;58643;49.052;8.518;2023-04-06T11:49:27;19.50;48.00
37342;DHT22;58643;49.052;8.518;2023-04-06T11:51:53;19.50;48.40
37342;DHT22;58643;49.052;8.518;2023-04-06T11:54:36;19.50;49.00
37342;DHT22;58643;49.052;8.518;2023-04-06T11:57:06;18.10;49.00
37342;DHT22;58643;49.052;8.518;2023-04-06T11:59:32;18.10;51.00
37342;DHT22;58643;49.052;8.518;2023-04-06T12:01:58;18.40;49.40
37342;DHT22;58643;49.052;8.518;2023-04-06T12:04:24;18.20;50.40
37342;DHT22;58643;49.052;8.518;2023-04-06T12:06:50;18.70;48.60
37342;DHT22;58643;49.052;8.518;2023-04-06T12:09:18;19.10;49.40
37342;DHT22;58643;49.052;8.518;2023-04-06T12:11:44;18.40;47.60
37342;DHT22;58643;49.052;8.518;2023-04-06T12:14:10;18.50;48.30
37342;DHT22;58643;49.052;8.518;2023-04-06T12:16:36;18.50;49.70
37342;DHT22;58643;49.052;8.518;2023-04-06T12:19:01;18.60;48.50
37342;DHT22;58643;49.052;8.518;2023-04-06T12:21:27;18.70;47.40
37342;DHT22;58643;49.052;8.518;2023-04-06T12:23:54;18.40;47.70
37342;DHT22;58643;49.052;8.518;2023-04-06T12:26:20;18.50;48.50
37342;DHT22;58643;49.052;8.518;2023-04-06T12:28:46;18.50;49.90
37342;DHT22;58643;49.052;8.518;2023-04-06T12:31:19;17.80;49.20
37342;DHT22;58643;49.052;8.518;2023-04-06T12:33:49;17.30;52.30
37342;DHT22;58643;49.052;8.518;2023-04-06T12:36:17;16.80;52.40
37342;DHT22;58643;49.052;8.518;2023-04-06T12:38:50;17.20;49.60
37342;DHT22;58643;49.052;8.518;2023-04-06T12:41:17;17.40;50.70
37342;DHT22;58643;49.052;8.518;2023-04-06T12:43:44;17.20;49.60
37342;DHT22;58643;49.052;8.518;2023-04-06T12:46:11;17.10;50.10
37342;DHT22;58643;49.052;8.518;2023-04-06T12:48:37;17.40;49.30
37342;DHT22;58643;49.052;8.518;2023-04-06T12:51:04;17.30;49.20
37342;DHT22;58643;49.052;8.518;2023-04-06T12:53:31;16.70;49.90
37342;DHT22;58643;49.052;8.518;2023-04-06T12:55:58;17.30;48.90
37342;DHT22;58643;49.052;8.518;2023-04-06T12:58:24;18.10;47.90
37342;DHT22;58643;49.052;8.518;2023-04-06T13:00:54;17.80;48.20
37342;DHT22;58643;49.052;8.518;2023-04-06T13:03:20;17.90;49.20
37342;DHT22;58643;49.052;8.518;2023-04-06T13:05:47;18.00;46.90
37342;DHT22;58643;49.052;8.518;2023-04-06T13:08:14;18.30;48.50
37342;DHT22;58643;49.052;8.518;2023-04-06T13:10:50;18.10;47.80
37342;DHT22;58643;49.052;8.518;2023-04-06T13:13:16;18.60;47.90
37342;DHT22;58643;49.052;8.518;2023-04-06T13:15:42;19.20;46.60
37342;DHT22;58643;49.052;8.518;2023-04-06T13:18:10;19.30;45.90
37342;DHT22;58643;49.052;8.518;2023-04-06T13:20:36;19.20;46.00
37342;DHT22;58643;49.052;8.518;2023-04-06T13:23:01;19.80;46.30
37342;DHT22;58643;49.052;8.518;2023-04-06T13:25:27;19.90;46.30
37342;DHT22;58643;49.052;8.518;2023-04-06T13:27:53;19.50;45.60
37342;DHT22;58643;49.052;8.518;2023-04-06T13:30:20;18.90;46.10
37342;DHT22;58643;49.052;8.518;2023-04-06T13:32:46;18.40;47.20
37342;DHT22;58643;49.052;8.518;2023-04-06T13:35:11;18.40;46.20
37342;DHT22;58643;49.052;8.518;2023-04-06T13:37:37;18.80;46.60
37342;DHT22;58643;49.052;8.518;2023-04-06T13:40:03;18.90;47.00
37342;DHT22;58643;49.052;8.518;2023-04-06T13:42:30;18.40;47.30
37342;DHT22;58643;49.052;8.518;2023-04-06T13:44:56;18.00;47.80
37342;DHT22;58643;49.052;8.518;2023-04-06T13:47:22;17.40;49.20
37342;DHT22;58643;49.052;8.518;2023-04-06T13:49:50;17.40;48.20
37342;DHT22;58643;49.052;8.518;2023-04-06T13:52:16;16.80;49.50
37342;DHT22;58643;49.052;8.518;2023-04-06T13:54:42;16.50;49.20
37342;DHT22;58643;49.052;8.518;2023-04-06T13:57:08;16.00;49.60
37342;DHT22;58643;49.052;8.518;2023-04-06T13:59:34;16.10;49.50
37342;DHT22;58643;49.052;8.518;2023-04-06T14:02:04;16.20;48.60
37342;DHT22;58643;49.052;8.518;2023-04-06T14:04:30;16.60;47.30
37342;DHT22;58643;49.052;8.518;2023-04-06T14:06:57;16.40;46.40
37342;DHT22;58643;49.052;8.518;2023-04-06T14:09:23;17.80;47.90
37342;DHT22;58643;49.052;8.518;2023-04-06T14:11:49;17.20;46.80
37342;DHT22;58643;49.052;8.518;2023-04-06T14:14:15;18.60;47.30
37342;DHT22;58643;49.052;8.518;2023-04-06T14:16:41;18.30;46.60
37342;DHT22;58643;49.052;8.518;2023-04-06T14:19:10;17.00;46.60
37342;DHT22;58643;49.052;8.518;2023-04-06T14:21:37;17.30;47.10
37342;DHT22;58643;49.052;8.518;2023-04-06T14:24:03;18.00;47.00
37342;DHT22;58643;49.052;8.518;2023-04-06T14:26:29;17.50;46.10
37342;DHT22;58643;49.052;8.518;2023-04-06T14:28:54;17.90;45.00
37342;DHT22;58643;49.052;8.518;2023-04-06T14:31:21;19.50;45.10
37342;DHT22;58643;49.052;8.518;2023-04-06T14:33:46;17.60;45.30
37342;DHT22;58643;49.052;8.518;2023-04-06T14:36:12;17.80;45.60
37342;DHT22;58643;49.052;8.518;2023-04-06T14:38:37;19.00;45.30
37342;DHT22;58643;49.052;8.518;2023-04-06T14:41:04;17.60;45.20
37342;DHT22;58643;49.052;8.518;2023-04-06T14:43:30;17.70;45.20
37342;DHT22;58643;49.052;8.518;2023-04-06T14:46:00;17.70;44.30
37342;DHT22;58643;49.052;8.518;2023-04-06T14:48:25;17.40;46.50
37342;DHT22;58643;49.052;8.518;2023-04-06T14:50:55;17.50;47.10
37342;DHT22;58643;49.052;8.518;2023-04-06T14:53:24;16.90;49.30
37342;DHT22;58643;49.052;8.518;2023-04-06T14:55:49;16.60;48.90
37342;DHT22;58643;49.052;8.518;2023-04-06T14:58:17;16.00;49.50
37342;DHT22;58643;49.052;8.518;2023-04-06T15:00:42;15.90;49.90
37342;DHT22;58643;49.052;8.518;2023-04-06T15:03:08;16.20;51.00
37342;DHT22;58643;49.052;8.518;2023-04-06T15:05:34;17.10;51.70
37342;DHT22;58643;49.052;8.518;2023-04-06T15:08:00;15.90;50.80
37342;DHT22;58643;49.052;8.518;2023-04-06T15:10:25;15.90;52.20
37342;DHT22;58643;49.052;8.518;2023-04-06T15:12:51;16.30;51.60
37342;DHT22;58643;49.052;8.518;2023-04-06T15:15:17;15.90;51.80
37342;DHT22;58643;49.052;8.518;2023-04-06T15:17:42;16.50;51.40
37342;DHT22;58643;49.052;8.518;2023-04-06T15:20:08;16.80;52.10
37342;DHT22;58643;49.052;8.518;2023-04-06T15:22:35;16.00;51.10
37342;DHT22;58643;49.052;8.518;2023-04-06T15:25:00;16.60;52.60
37342;DHT22;58643;49.052;8.518;2023-04-06T15:27:26;15.60;53.00
37342;DHT22;58643;49.052;8.518;2023-04-06T15:29:51;15.70;52.80
37342;DHT22;58643;49.052;8.518;2023-04-06T15:32:17;16.20;53.60
37342;DHT22;58643;49.052;8.518;2023-04-06T15:34:42;16.30;54.20
37342;DHT22;58643;49.052;8.518;2023-04-06T15:37:08;15.20;52.50
37342;DHT22;58643;49.052;8.518;2023-04-06T15:39:34;15.20;53.20
37342;DHT22;58643;49.052;8.518;2023-04-06T15:42:01;15.30;54.10
37342;DHT22;58643;49.052;8.518;2023-04-06T15:44:27;12.70;52.80
37342;DHT22;58643;49.052;8.518;2023-04-06T15:46:52;15.20;54.50